createdAt,value
2019-04-10T00:00:53.637Z,11.86
2019-04-10T00:03:31.489Z,11.88
2019-04-10T00:05:54.187Z,11.87
2019-04-10T00:08:24.087Z,11.84
2019-04-10T00:10:54.310Z,11.80
2019-04-10T00:13:24.707Z,11.77
2019-04-10T00:15:54.886Z,11.70
2019-04-10T00:18:24.488Z,11.65
2019-04-10T00:20:53.962Z,11.60
2019-04-10T00:23:23.402Z,11.54
2019-04-10T00:25:53.062Z,11.52
2019-04-10T00:28:23.432Z,11.44
2019-04-10T00:30:53.598Z,11.41
2019-04-10T00:33:23.058Z,11.35
2019-04-10T00:35:52.458Z,11.31
2019-04-10T00:38:21.980Z,11.29
2019-04-10T00:40:52.032Z,11.29
2019-04-10T00:43:22.485Z,11.27
2019-04-10T00:45:52.042Z,11.27
2019-04-10T00:48:21.525Z,11.25
2019-04-10T00:50:51.026Z,11.20
2019-04-10T00:53:21.212Z,11.18
2019-04-10T00:55:50.788Z,11.17
2019-04-10T00:58:20.422Z,11.09
2019-04-10T01:00:50.380Z,11.10
2019-04-10T01:03:39.983Z,11.13
2019-04-10T01:06:09.861Z,11.11
2019-04-10T01:08:39.253Z,11.16
2019-04-10T01:11:08.755Z,11.17
2019-04-10T01:13:38.279Z,11.13
2019-04-10T01:16:07.753Z,11.12
2019-04-10T01:18:37.410Z,11.13
2019-04-10T01:21:06.943Z,11.11
2019-04-10T01:23:37.916Z,11.11
2019-04-10T01:26:07.589Z,11.11
2019-04-10T01:28:37.006Z,11.09
2019-04-10T01:31:06.750Z,11.08
2019-04-10T01:33:36.830Z,11.07
2019-04-10T01:36:06.951Z,11.05
2019-04-10T01:38:36.485Z,11.01
2019-04-10T01:41:05.983Z,11.05
2019-04-10T01:43:35.408Z,11.03
2019-04-10T01:46:04.815Z,11.01
2019-04-10T01:48:34.568Z,11.03
2019-04-10T01:51:04.143Z,11.01
2019-04-10T01:53:33.649Z,11.03
2019-04-10T01:56:03.199Z,11.00
2019-04-10T01:58:32.901Z,11.00
2019-04-10T02:01:08.343Z,11.00
2019-04-10T02:03:38.293Z,10.96
2019-04-10T02:06:07.854Z,10.95
2019-04-10T02:08:38.217Z,10.94
2019-04-10T02:11:08.830Z,10.96
2019-04-10T02:13:39.246Z,10.96
2019-04-10T02:16:08.853Z,10.96
2019-04-10T02:18:38.446Z,10.95
2019-04-10T02:21:07.837Z,10.97
2019-04-10T02:23:37.328Z,10.98
2019-04-10T02:26:07.825Z,11.00
2019-04-10T02:28:39.512Z,10.95
2019-04-10T02:31:10.123Z,10.93
2019-04-10T02:33:41.089Z,10.99
2019-04-10T02:36:12.845Z,10.99
2019-04-10T02:38:57.236Z,10.94
2019-04-10T02:41:14.163Z,10.92
2019-04-10T02:43:45.167Z,10.92
2019-04-10T02:46:15.582Z,10.92
2019-04-10T02:48:45.376Z,10.98
2019-04-10T02:51:15.458Z,10.95
2019-04-10T02:53:45.978Z,10.94
2019-04-10T02:56:15.959Z,10.95
2019-04-10T02:58:47.056Z,10.98
2019-04-10T03:01:17.478Z,10.93
2019-04-10T03:03:47.111Z,10.96
2019-04-10T03:06:16.492Z,10.95
2019-04-10T03:09:03.423Z,10.96
2019-04-10T03:11:19.491Z,10.99
2019-04-10T03:13:49.074Z,10.99
2019-04-10T03:16:19.458Z,10.98
2019-04-10T03:18:49.334Z,10.96
2019-04-10T03:21:18.879Z,10.95
2019-04-10T03:23:48.252Z,10.98
2019-04-10T03:26:17.676Z,10.98
2019-04-10T03:28:47.282Z,10.98
2019-04-10T03:31:16.726Z,10.97
2019-04-10T03:33:54.133Z,10.98
2019-04-10T03:36:23.246Z,10.96
2019-04-10T03:38:58.533Z,10.93
2019-04-10T03:41:24.152Z,10.95
2019-04-10T03:43:54.250Z,10.98
2019-04-10T03:46:23.908Z,10.94
2019-04-10T03:48:53.533Z,10.96
2019-04-10T03:51:22.972Z,10.96
2019-04-10T03:53:52.467Z,10.94
2019-04-10T03:56:22.132Z,10.96
2019-04-10T03:58:51.697Z,10.92
2019-04-10T04:01:21.113Z,10.93
2019-04-10T04:03:51.124Z,10.95
2019-04-10T04:06:21.695Z,10.93
2019-04-10T04:09:01.563Z,10.89
2019-04-10T04:11:22.253Z,10.89
2019-04-10T04:13:52.149Z,10.88
2019-04-10T04:16:22.619Z,10.90
2019-04-10T04:18:53.300Z,10.91
2019-04-10T04:21:23.770Z,10.93
2019-04-10T04:23:53.355Z,10.86
2019-04-10T04:26:23.184Z,10.90
2019-04-10T04:28:53.685Z,10.93
2019-04-10T04:31:23.210Z,10.94
2019-04-10T04:33:53.313Z,10.92
2019-04-10T04:36:22.838Z,10.92
2019-04-10T04:38:53.291Z,10.94
2019-04-10T04:41:23.182Z,10.94
2019-04-10T04:43:53.343Z,10.97
2019-04-10T04:46:23.877Z,11.03
2019-04-10T04:48:54.325Z,10.99
2019-04-10T04:51:25.811Z,10.96
2019-04-10T04:53:55.066Z,11.00
2019-04-10T04:56:24.587Z,10.99
2019-04-10T04:58:53.974Z,11.00
2019-04-10T05:01:23.362Z,11.05
2019-04-10T05:03:52.894Z,11.04
2019-04-10T05:06:22.377Z,11.04
2019-04-10T05:08:52.704Z,11.08
2019-04-10T05:11:22.411Z,11.13
2019-04-10T05:13:53.004Z,11.17
2019-04-10T05:16:22.762Z,11.22
2019-04-10T05:18:52.189Z,11.23
2019-04-10T05:21:21.588Z,11.26
2019-04-10T05:23:51.311Z,11.26
2019-04-10T05:26:20.945Z,11.26
2019-04-10T05:28:50.865Z,11.28
2019-04-10T05:31:21.406Z,11.31
2019-04-10T05:33:51.316Z,11.34
2019-04-10T05:36:21.601Z,11.35
2019-04-10T05:38:52.284Z,11.36
2019-04-10T05:41:23.252Z,11.33
2019-04-10T05:43:53.195Z,11.30
2019-04-10T05:46:24.986Z,11.35
2019-04-10T05:48:54.474Z,11.38
2019-04-10T05:51:23.886Z,11.36
2019-04-10T05:53:55.272Z,11.39
2019-04-10T05:56:25.812Z,11.44
2019-04-10T05:58:55.370Z,11.45
2019-04-10T06:01:33.831Z,11.45
2019-04-10T06:03:56.752Z,11.52
2019-04-10T06:06:26.428Z,11.51
2019-04-10T06:08:56.151Z,11.54
2019-04-10T06:11:25.683Z,11.65
2019-04-10T06:13:55.225Z,11.69
2019-04-10T06:16:24.635Z,11.76
2019-04-10T06:18:54.132Z,11.85
2019-04-10T06:21:23.661Z,11.88
2019-04-10T06:23:53.929Z,11.95
2019-04-10T06:26:23.752Z,11.92
2019-04-10T06:28:54.697Z,11.94
2019-04-10T06:31:24.917Z,11.92
2019-04-10T06:33:54.442Z,12.00
2019-04-10T06:36:24.995Z,12.07
2019-04-10T06:38:55.119Z,12.17
2019-04-10T06:41:24.692Z,12.22
2019-04-10T06:43:55.027Z,12.40
2019-04-10T06:46:24.631Z,12.59
2019-04-10T06:48:54.285Z,12.58
2019-04-10T06:51:24.832Z,12.77
2019-04-10T06:54:03.616Z,12.95
2019-04-10T06:56:25.681Z,13.08
2019-04-10T06:58:56.116Z,13.02
2019-04-10T07:01:37.168Z,13.04
2019-04-10T07:04:02.757Z,12.91
2019-04-10T07:06:44.600Z,12.99
2019-04-10T07:08:59.354Z,13.05
2019-04-10T07:11:31.362Z,12.95
2019-04-10T07:14:00.078Z,13.01
2019-04-10T07:16:32.515Z,13.09
2019-04-10T07:19:04.341Z,13.15
2019-04-10T07:21:35.174Z,13.19
2019-04-10T07:24:05.374Z,13.16
2019-04-10T07:26:40.335Z,13.18
2019-04-10T07:29:05.811Z,13.21
2019-04-10T07:31:36.729Z,13.20
2019-04-10T07:34:06.746Z,13.21
2019-04-10T07:36:39.975Z,13.25
2019-04-10T07:39:09.613Z,13.22
2019-04-10T07:41:39.728Z,13.30
2019-04-10T07:44:09.989Z,13.36
2019-04-10T07:46:40.177Z,13.37
2019-04-10T07:49:10.559Z,13.37
2019-04-10T07:51:40.227Z,13.39
2019-04-10T07:54:09.622Z,13.33
2019-04-10T07:56:39.575Z,13.46
2019-04-10T07:59:09.429Z,13.54
2019-04-10T08:01:40.458Z,13.63
2019-04-10T08:04:10.479Z,13.65
2019-04-10T08:06:40.053Z,13.74
2019-04-10T08:09:10.555Z,13.83
2019-04-10T08:11:40.233Z,13.68
2019-04-10T08:14:10.652Z,13.81
2019-04-10T08:16:41.365Z,13.92
2019-04-10T08:19:10.904Z,13.97
2019-04-10T08:21:40.611Z,14.03
2019-04-10T08:24:10.037Z,14.05
2019-04-10T08:26:39.454Z,14.13
2019-04-10T08:29:09.908Z,14.23
2019-04-10T08:31:39.693Z,14.32
2019-04-10T08:34:09.152Z,14.52
2019-04-10T08:36:39.509Z,14.51
2019-04-10T08:39:09.515Z,14.50
2019-04-10T08:41:39.052Z,14.51
2019-04-10T08:44:08.585Z,14.60
2019-04-10T08:46:38.008Z,14.74
2019-04-10T08:49:07.873Z,14.62
2019-04-10T08:51:37.398Z,14.90
2019-04-10T08:54:07.873Z,15.14
2019-04-10T08:56:38.611Z,15.14
2019-04-10T08:59:08.246Z,15.11
2019-04-10T09:01:37.717Z,15.11
2019-04-10T09:04:07.772Z,15.26
2019-04-10T09:06:37.768Z,15.15
2019-04-10T09:09:08.151Z,15.15
2019-04-10T09:11:37.638Z,15.23
2019-04-10T09:14:08.567Z,15.23
2019-04-10T09:16:38.589Z,15.23
2019-04-10T09:19:08.031Z,15.38
2019-04-10T09:21:37.446Z,15.38
2019-04-10T09:24:08.087Z,15.36
2019-04-10T09:26:38.234Z,15.28
2019-04-10T09:29:07.713Z,15.26
2019-04-10T09:31:37.812Z,15.16
2019-04-10T09:34:07.618Z,15.18
2019-04-10T09:36:37.561Z,15.13
2019-04-10T09:39:09.603Z,15.18
2019-04-10T09:41:39.225Z,15.24
2019-04-10T09:44:08.685Z,15.35
2019-04-10T09:46:38.121Z,15.44
2019-04-10T09:49:08.776Z,15.52
2019-04-10T09:51:38.794Z,15.65
2019-04-10T09:54:08.276Z,15.75
2019-04-10T09:56:38.587Z,15.92
2019-04-10T09:59:08.267Z,15.99
2019-04-10T10:01:38.017Z,16.04
2019-04-10T10:04:07.379Z,16.18
2019-04-10T10:06:38.187Z,16.34
2019-04-10T10:09:08.586Z,16.35
2019-04-10T10:11:38.603Z,16.35
2019-04-10T10:14:08.317Z,16.34
2019-04-10T10:16:37.954Z,16.10
2019-04-10T10:19:07.967Z,16.22
2019-04-10T10:21:38.716Z,16.27
2019-04-10T10:24:08.716Z,16.16
2019-04-10T10:26:38.302Z,16.33
2019-04-10T10:29:09.239Z,16.60
2019-04-10T10:31:40.154Z,16.75
2019-04-10T10:34:10.270Z,16.75
2019-04-10T10:36:43.440Z,16.96
2019-04-10T10:39:19.122Z,17.04
2019-04-10T10:41:49.078Z,16.93
2019-04-10T10:44:18.646Z,17.33
2019-04-10T10:46:48.109Z,17.55
2019-04-10T10:49:18.600Z,17.49
2019-04-10T10:51:48.034Z,17.41
2019-04-10T10:54:17.575Z,17.44
2019-04-10T10:56:47.281Z,17.48
2019-04-10T10:59:17.571Z,17.54
2019-04-10T11:01:47.078Z,17.54
2019-04-10T11:04:16.642Z,17.51
2019-04-10T11:09:18.178Z,17.84
2019-04-10T11:11:47.658Z,18.16
2019-04-10T11:14:21.501Z,18.35
2019-04-10T11:16:51.662Z,18.56
2019-04-10T11:19:21.160Z,18.66
2019-04-10T11:21:51.021Z,18.72
2019-04-10T11:24:20.566Z,18.56
2019-04-10T11:26:51.951Z,18.40
2019-04-10T11:29:22.017Z,18.34
2019-04-10T11:31:51.603Z,18.33
2019-04-10T11:34:22.495Z,18.19
2019-04-10T11:39:26.870Z,18.47
2019-04-10T11:41:55.279Z,18.58
2019-04-10T11:44:27.605Z,18.52
2019-04-10T11:46:58.840Z,18.45
2019-04-10T11:49:29.493Z,18.66
2019-04-10T11:52:01.436Z,18.72
2019-04-10T11:54:34.307Z,18.67
2019-04-10T11:57:03.194Z,18.77
2019-04-10T11:59:35.686Z,18.63
2019-04-10T12:02:06.480Z,18.71
2019-04-10T12:04:47.450Z,18.53
2019-04-10T12:07:09.707Z,18.73
2019-04-10T12:12:13.289Z,18.58
2019-04-10T12:14:43.691Z,18.00
2019-04-10T12:17:13.819Z,18.08
2019-04-10T12:19:43.295Z,18.00
2019-04-10T12:22:13.665Z,17.81
2019-04-10T12:24:43.201Z,17.90
2019-04-10T12:27:12.701Z,17.86
2019-04-10T12:29:42.620Z,17.78
2019-04-10T12:32:12.427Z,17.53
2019-04-10T12:34:44.464Z,17.67
2019-04-10T12:37:15.359Z,17.72
2019-04-10T12:39:45.432Z,17.87
2019-04-10T12:42:14.914Z,17.91
2019-04-10T12:44:44.494Z,17.67
2019-04-10T12:47:13.960Z,17.84
2019-04-10T12:49:43.596Z,17.83
2019-04-10T12:52:14.121Z,18.13
2019-04-10T12:54:44.917Z,17.71
2019-04-10T12:57:14.828Z,18.06
2019-04-10T12:59:44.417Z,18.47
2019-04-10T13:02:14.734Z,18.52
2019-04-10T13:04:45.090Z,18.69
2019-04-10T13:07:15.728Z,18.25
2019-04-10T13:09:46.256Z,18.37
2019-04-10T13:12:15.757Z,18.37
2019-04-10T13:14:45.187Z,18.33
2019-04-10T13:17:14.624Z,18.19
2019-04-10T13:19:45.184Z,18.06
2019-04-10T13:22:15.925Z,17.75
2019-04-10T13:24:45.901Z,17.75
2019-04-10T13:27:16.704Z,17.55
2019-04-10T13:29:46.716Z,17.53
2019-04-10T13:32:16.894Z,17.57
2019-04-10T13:34:47.589Z,17.56
2019-04-10T13:37:17.956Z,17.50
2019-04-10T13:39:47.401Z,17.44
2019-04-10T13:42:16.939Z,17.39
2019-04-10T13:44:46.791Z,17.35
2019-04-10T13:47:17.430Z,17.40
2019-04-10T13:49:48.369Z,17.36
2019-04-10T13:52:18.317Z,17.43
2019-04-10T13:54:47.859Z,17.62
2019-04-10T13:57:18.146Z,17.75
2019-04-10T13:59:47.595Z,17.92
2019-04-10T14:02:25.725Z,17.84
2019-04-10T14:04:55.561Z,18.10
2019-04-10T14:07:26.510Z,18.11
2019-04-10T14:09:56.582Z,18.26
2019-04-10T14:12:27.078Z,18.43
2019-04-10T14:14:57.326Z,18.41
2019-04-10T14:17:27.748Z,18.42
2019-04-10T14:19:58.946Z,18.58
2019-04-10T14:22:29.541Z,18.41
2019-04-10T14:24:59.076Z,18.59
2019-04-10T14:27:30.185Z,18.78
2019-04-10T14:29:59.774Z,18.91
2019-04-10T14:32:37.629Z,18.66
2019-04-10T14:35:09.884Z,18.58
2019-04-10T14:37:39.526Z,18.46
2019-04-10T14:40:11.679Z,18.04
2019-04-10T14:42:42.373Z,18.12
2019-04-10T14:45:13.123Z,18.10
2019-04-10T14:47:43.477Z,18.08
2019-04-10T14:50:13.697Z,18.23
2019-04-10T14:52:43.620Z,18.19
2019-04-10T14:55:13.064Z,17.96
2019-04-10T14:57:43.269Z,18.01
2019-04-10T15:00:22.429Z,18.07
2019-04-10T15:02:51.960Z,18.03
2019-04-10T15:05:21.756Z,17.86
2019-04-10T15:07:51.382Z,17.89
2019-04-10T15:10:20.766Z,17.96
2019-04-10T15:12:50.218Z,17.99
2019-04-10T15:15:20.570Z,17.89
2019-04-10T15:17:50.647Z,17.78
2019-04-10T15:20:20.860Z,17.72
2019-04-10T15:22:50.675Z,17.55
2019-04-10T15:25:20.278Z,17.46
2019-04-10T15:27:49.726Z,17.29
2019-04-10T15:30:22.311Z,17.12
2019-04-10T15:32:51.955Z,16.93
2019-04-10T15:35:21.376Z,16.81
2019-04-10T15:37:50.969Z,16.69
2019-04-10T15:40:25.173Z,16.58
2019-04-10T15:42:52.345Z,16.45
2019-04-10T15:45:21.965Z,16.14
2019-04-10T15:47:54.556Z,16.14
2019-04-10T15:50:22.867Z,15.97
2019-04-10T15:52:53.586Z,15.97
2019-04-10T15:55:25.831Z,15.93
2019-04-10T15:57:58.313Z,15.83
2019-04-10T16:00:27.437Z,15.69
2019-04-10T16:02:57.344Z,15.47
2019-04-10T16:05:26.985Z,15.47
2019-04-10T16:07:56.428Z,15.27
2019-04-10T16:10:41.329Z,15.27
2019-04-10T16:13:30.402Z,15.27
2019-04-10T16:16:05.426Z,15.24
2019-04-10T16:18:35.000Z,15.26
2019-04-10T16:21:04.627Z,15.28
2019-04-10T16:23:40.717Z,15.40
2019-04-10T16:26:11.133Z,15.40
2019-04-10T16:28:40.663Z,15.35
2019-04-10T16:31:10.939Z,15.30
2019-04-10T16:33:41.336Z,15.13
2019-04-10T16:36:10.897Z,15.13
2019-04-10T16:38:40.683Z,15.05
2019-04-10T16:41:10.159Z,14.97
2019-04-10T16:43:40.428Z,14.90
2019-04-10T16:46:11.123Z,14.86
2019-04-10T16:48:40.709Z,14.91
2019-04-10T16:51:10.477Z,14.97
2019-04-10T16:53:41.064Z,14.95
2019-04-10T16:56:11.507Z,14.96
2019-04-10T16:58:41.684Z,14.98
2019-04-10T17:01:12.675Z,15.00
2019-04-10T17:03:42.173Z,15.04
2019-04-10T17:06:12.302Z,15.08
2019-04-10T17:08:41.990Z,15.11
2019-04-10T17:11:12.537Z,15.12
2019-04-10T17:13:42.528Z,15.12
2019-04-10T17:16:13.456Z,15.10
2019-04-10T17:18:43.457Z,15.00
2019-04-10T17:21:13.125Z,14.97
2019-04-10T17:23:42.850Z,14.92
2019-04-10T17:26:13.024Z,15.05
2019-04-10T17:28:42.809Z,15.04
2019-04-10T17:31:16.135Z,14.93
2019-04-10T17:33:46.155Z,14.76
2019-04-10T17:36:16.893Z,14.69
2019-04-10T17:38:47.167Z,14.51
2019-04-10T17:41:17.661Z,14.41
2019-04-10T17:43:49.551Z,14.32
2019-04-10T17:46:19.782Z,14.22
2019-04-10T17:48:49.598Z,14.05
2019-04-10T17:51:19.791Z,13.96
2019-04-10T17:53:49.612Z,13.80
2019-04-10T17:56:22.270Z,13.74
2019-04-10T17:58:52.067Z,13.55
2019-04-10T18:01:27.145Z,13.49
2019-04-10T18:03:59.953Z,13.44
2019-04-10T18:06:27.792Z,13.40
2019-04-10T18:08:57.291Z,13.25
2019-04-10T18:11:27.863Z,13.17
2019-04-10T18:13:58.394Z,13.10
2019-04-10T18:16:28.107Z,13.02
2019-04-10T18:18:58.167Z,13.00
2019-04-10T18:21:28.548Z,12.99
2019-04-10T18:23:58.421Z,12.96
2019-04-10T18:26:27.922Z,12.98
2019-04-10T18:28:58.051Z,13.00
2019-04-10T18:31:29.521Z,12.89
2019-04-10T18:33:59.028Z,12.87
2019-04-10T18:36:28.515Z,12.89
2019-04-10T18:38:57.991Z,12.89
2019-04-10T18:41:27.680Z,12.81
2019-04-10T18:43:58.465Z,12.78
2019-04-10T18:46:29.099Z,12.72
2019-04-10T18:48:58.967Z,12.70
2019-04-10T18:51:28.508Z,12.63
2019-04-10T18:53:57.986Z,12.57
2019-04-10T18:56:27.412Z,12.53
2019-04-10T18:59:12.394Z,12.50
2019-04-10T19:02:01.414Z,12.48
2019-04-10T19:04:41.543Z,12.48
2019-04-10T19:07:11.242Z,12.50
2019-04-10T19:09:41.094Z,12.53
2019-04-10T19:12:10.800Z,12.47
2019-04-10T19:14:40.622Z,12.45
2019-04-10T19:17:10.989Z,12.39
2019-04-10T19:19:42.382Z,12.39
2019-04-10T19:22:13.463Z,12.32
2019-04-10T19:24:44.074Z,12.27
2019-04-10T19:27:13.880Z,12.29
2019-04-10T19:29:43.426Z,12.25
2019-04-10T19:32:20.923Z,12.20
2019-04-10T19:34:50.343Z,12.25
2019-04-10T19:37:20.640Z,12.22
2019-04-10T19:39:50.818Z,12.24
2019-04-10T19:42:21.560Z,12.35
2019-04-10T19:44:51.087Z,12.28
2019-04-10T19:47:22.048Z,12.42
2019-04-10T19:49:51.628Z,12.40
2019-04-10T19:52:21.022Z,12.36
2019-04-10T19:54:51.302Z,12.43
2019-04-10T19:57:22.267Z,12.47
2019-04-10T19:59:52.330Z,12.41
2019-04-10T20:02:22.492Z,12.38
2019-04-10T20:04:52.744Z,12.38
2019-04-10T20:07:22.280Z,12.38
2019-04-10T20:09:52.811Z,12.42
2019-04-10T20:12:22.391Z,12.41
2019-04-10T20:14:51.823Z,12.36
2019-04-10T20:17:21.953Z,12.37
2019-04-10T20:19:54.155Z,12.36
2019-04-10T20:22:23.048Z,12.34
2019-04-10T20:24:53.494Z,12.22
2019-04-10T20:27:23.689Z,12.13
2019-04-10T20:29:53.255Z,12.14
2019-04-10T20:32:22.889Z,12.09
2019-04-10T20:34:52.285Z,12.13
2019-04-10T20:37:22.761Z,12.21
2019-04-10T20:39:53.687Z,12.16
2019-04-10T20:42:24.193Z,12.21
2019-04-10T20:44:54.693Z,12.24
2019-04-10T20:47:24.701Z,12.15
2019-04-10T20:49:55.326Z,12.10
2019-04-10T20:52:24.873Z,12.13
2019-04-10T20:54:55.241Z,12.15
2019-04-10T20:57:25.627Z,12.08
2019-04-10T20:59:55.658Z,12.18
2019-04-10T21:02:25.081Z,12.12
2019-04-10T21:05:01.261Z,12.19
2019-04-10T21:07:25.751Z,12.08
2019-04-10T21:09:55.230Z,12.06
2019-04-10T21:12:25.804Z,12.02
2019-04-10T21:14:56.711Z,12.02
2019-04-10T21:17:27.513Z,11.98
2019-04-10T21:19:57.962Z,11.95
2019-04-10T21:22:28.694Z,11.94
2019-04-10T21:24:58.446Z,11.87
2019-04-10T21:27:28.041Z,11.86
2019-04-10T21:30:13.858Z,11.85
2019-04-10T21:33:00.249Z,11.89
2019-04-10T21:35:34.931Z,11.86
2019-04-10T21:38:04.845Z,11.82
2019-04-10T21:40:34.852Z,11.92
2019-04-10T21:43:04.417Z,11.79
2019-04-10T21:45:34.980Z,11.78
2019-04-10T21:48:04.684Z,11.84
2019-04-10T21:50:35.529Z,11.93
2019-04-10T21:53:06.107Z,11.91
2019-04-10T21:55:35.661Z,11.88
2019-04-10T21:58:06.079Z,11.73
2019-04-10T22:00:53.397Z,11.65
2019-04-10T22:03:23.620Z,11.57
2019-04-10T22:06:01.635Z,11.45
2019-04-10T22:08:37.238Z,11.37
2019-04-10T22:11:06.670Z,11.44
2019-04-10T22:13:36.247Z,11.43
2019-04-10T22:16:07.625Z,11.37
2019-04-10T22:18:37.979Z,11.32
2019-04-10T22:21:08.206Z,11.40
2019-04-10T22:23:37.816Z,11.44
2019-04-10T22:26:07.236Z,11.47
2019-04-10T22:28:37.135Z,11.48
2019-04-10T22:31:07.433Z,11.48
2019-04-10T22:33:37.073Z,11.63
2019-04-10T22:36:06.651Z,11.45
2019-04-10T22:38:36.039Z,11.44
2019-04-10T22:41:17.343Z,11.54
2019-04-10T22:43:36.715Z,11.67
2019-04-10T22:46:06.652Z,11.76
2019-04-10T22:48:37.129Z,11.78
2019-04-10T22:51:08.412Z,11.59
2019-04-10T22:53:39.551Z,11.66
2019-04-10T22:56:09.138Z,11.66
2019-04-10T22:58:39.366Z,11.65
2019-04-10T23:01:10.945Z,11.57
2019-04-10T23:03:41.036Z,11.54
2019-04-10T23:06:11.106Z,11.61
2019-04-10T23:08:41.725Z,11.68
2019-04-10T23:11:11.497Z,11.60
2019-04-10T23:13:40.896Z,11.65
2019-04-10T23:16:13.096Z,11.65
2019-04-10T23:18:41.686Z,11.67
2019-04-10T23:21:12.239Z,11.59
2019-04-10T23:23:43.231Z,11.61
2019-04-10T23:26:13.328Z,11.71
2019-04-10T23:28:44.046Z,11.79
2019-04-10T23:31:13.448Z,11.85
2019-04-10T23:33:43.972Z,11.79
2019-04-10T23:36:13.952Z,11.75
2019-04-10T23:38:43.820Z,11.71
2019-04-10T23:41:13.662Z,11.83
2019-04-10T23:43:44.032Z,11.81
2019-04-10T23:46:14.513Z,11.75
2019-04-10T23:48:44.691Z,11.76
2019-04-10T23:51:14.736Z,11.74
2019-04-10T23:53:44.771Z,11.71
2019-04-10T23:56:15.540Z,11.64
2019-04-10T23:58:45.015Z,11.66
